sensor_id;sensor_type;location;lat;lon;timestamp;pressure;altitude;pressure_sealevel;temperature;humidity
19114;BME280;9689;51.052;13.772;2024-01-11T00:04:56;101796.50;;;-7.05;84.41
19114;BME280;9689;51.052;13.772;2024-01-11T00:10:00;101793.88;;;-7.07;84.66
19114;BME280;9689;51.052;13.772;2024-01-11T00:15:01;101795.31;;;-7.10;84.56
19114;BME280;9689;51.052;13.772;2024-01-11T00:20:02;101796.06;;;-7.12;84.86
19114;BME280;9689;51.052;13.772;2024-01-11T00:25:05;101794.84;;;-7.17;84.99
19114;BME280;9689;51.052;13.772;2024-01-11T00:30:08;101791.94;;;-7.21;84.91
19114;BME280;9689;51.052;13.772;2024-01-11T00:35:09;101783.34;;;-7.23;84.79
19114;BME280;9689;51.052;13.772;2024-01-11T00:40:11;101781.28;;;-7.29;84.71
19114;BME280;9689;51.052;13.772;2024-01-11T00:45:12;101771.78;;;-7.31;84.93
19114;BME280;9689;51.052;13.772;2024-01-11T00:50:13;101777.72;;;-7.31;84.89
19114;BME280;9689;51.052;13.772;2024-01-11T00:55:15;101772.44;;;-7.34;85.22
19114;BME280;9689;51.052;13.772;2024-01-11T01:00:16;101763.59;;;-7.39;85.14
19114;BME280;9689;51.052;13.772;2024-01-11T01:05:17;101761.50;;;-7.45;85.16
19114;BME280;9689;51.052;13.772;2024-01-11T01:10:19;101752.66;;;-7.50;85.38
19114;BME280;9689;51.052;13.772;2024-01-11T01:15:20;101741.88;;;-7.47;85.41
19114;BME280;9689;51.052;13.772;2024-01-11T01:20:20;101726.16;;;-7.55;85.66
19114;BME280;9689;51.052;13.772;2024-01-11T01:25:22;101755.00;;;-7.53;85.72
19114;BME280;9689;51.052;13.772;2024-01-11T01:30:23;101749.25;;;-7.50;85.37
19114;BME280;9689;51.052;13.772;2024-01-11T01:35:24;101770.06;;;-7.54;85.35
19114;BME280;9689;51.052;13.772;2024-01-11T01:40:26;101770.84;;;-7.55;85.89
19114;BME280;9689;51.052;13.772;2024-01-11T01:45:27;101764.81;;;-7.46;86.45
19114;BME280;9689;51.052;13.772;2024-01-11T01:50:28;101771.06;;;-7.52;86.50
19114;BME280;9689;51.052;13.772;2024-01-11T01:55:31;101766.56;;;-7.45;87.01
19114;BME280;9689;51.052;13.772;2024-01-11T02:00:32;101755.19;;;-7.50;86.55
19114;BME280;9689;51.052;13.772;2024-01-11T02:05:33;101774.53;;;-7.62;86.90
19114;BME280;9689;51.052;13.772;2024-01-11T02:10:35;101780.47;;;-7.61;86.79
19114;BME280;9689;51.052;13.772;2024-01-11T02:15:36;101770.06;;;-7.54;87.42
19114;BME280;9689;51.052;13.772;2024-01-11T02:20:37;101770.66;;;-7.69;86.67
19114;BME280;9689;51.052;13.772;2024-01-11T02:25:39;101766.69;;;-7.65;86.46
19114;BME280;9689;51.052;13.772;2024-01-11T02:30:40;101765.03;;;-7.64;86.92
19114;BME280;9689;51.052;13.772;2024-01-11T02:35:41;101787.19;;;-7.62;87.03
19114;BME280;9689;51.052;13.772;2024-01-11T02:40:48;101782.53;;;-7.68;86.37
19114;BME280;9689;51.052;13.772;2024-01-11T02:45:50;101781.31;;;-7.73;86.54
19114;BME280;9689;51.052;13.772;2024-01-11T02:50:50;101806.91;;;-7.80;86.82
19114;BME280;9689;51.052;13.772;2024-01-11T02:55:53;101798.84;;;-7.86;86.38
19114;BME280;9689;51.052;13.772;2024-01-11T03:00:53;101798.31;;;-7.82;87.24
19114;BME280;9689;51.052;13.772;2024-01-11T03:05:54;101789.59;;;-7.85;86.30
19114;BME280;9689;51.052;13.772;2024-01-11T03:10:56;101797.94;;;-7.86;86.63
19114;BME280;9689;51.052;13.772;2024-01-11T03:15:57;101818.09;;;-7.88;86.14
19114;BME280;9689;51.052;13.772;2024-01-11T03:20:58;101796.06;;;-7.89;86.24
19114;BME280;9689;51.052;13.772;2024-01-11T03:26:00;101778.66;;;-7.96;86.38
19114;BME280;9689;51.052;13.772;2024-01-11T03:31:01;101769.66;;;-7.92;86.31
19114;BME280;9689;51.052;13.772;2024-01-11T03:36:06;101778.00;;;-7.93;86.36
19114;BME280;9689;51.052;13.772;2024-01-11T03:41:09;101753.69;;;-7.91;87.09
19114;BME280;9689;51.052;13.772;2024-01-11T03:46:10;101734.13;;;-7.94;85.88
19114;BME280;9689;51.052;13.772;2024-01-11T03:51:11;101733.47;;;-7.91;86.70
19114;BME280;9689;51.052;13.772;2024-01-11T03:56:13;101719.16;;;-7.91;86.10
19114;BME280;9689;51.052;13.772;2024-01-11T04:01:14;101741.00;;;-7.81;85.73
19114;BME280;9689;51.052;13.772;2024-01-11T04:06:19;101732.53;;;-7.82;86.01
19114;BME280;9689;51.052;13.772;2024-01-11T04:11:23;101737.34;;;-7.85;85.64
19114;BME280;9689;51.052;13.772;2024-01-11T04:16:27;101735.59;;;-7.86;85.41
19114;BME280;9689;51.052;13.772;2024-01-11T04:21:28;101733.94;;;-7.85;85.80
19114;BME280;9689;51.052;13.772;2024-01-11T04:26:30;101746.59;;;-7.85;85.86
19114;BME280;9689;51.052;13.772;2024-01-11T04:31:31;101766.81;;;-7.85;86.27
19114;BME280;9689;51.052;13.772;2024-01-11T04:36:33;101769.59;;;-7.82;86.02
19114;BME280;9689;51.052;13.772;2024-01-11T04:41:35;101793.94;;;-7.94;86.33
19114;BME280;9689;51.052;13.772;2024-01-11T04:46:36;101785.97;;;-7.89;86.81
19114;BME280;9689;51.052;13.772;2024-01-11T04:51:37;101787.13;;;-7.95;86.90
19114;BME280;9689;51.052;13.772;2024-01-11T04:56:39;101800.22;;;-8.11;87.53
19114;BME280;9689;51.052;13.772;2024-01-11T05:01:40;101801.41;;;-7.96;87.53
19114;BME280;9689;51.052;13.772;2024-01-11T05:06:41;101793.47;;;-8.01;87.83
19114;BME280;9689;51.052;13.772;2024-01-11T05:11:43;101774.88;;;-8.01;87.82
19114;BME280;9689;51.052;13.772;2024-01-11T05:16:45;101763.59;;;-7.94;87.35
19114;BME280;9689;51.052;13.772;2024-01-11T05:21:46;101761.41;;;-7.68;89.85
19114;BME280;9689;51.052;13.772;2024-01-11T05:26:48;101768.06;;;-8.02;88.31
19114;BME280;9689;51.052;13.772;2024-01-11T05:31:49;101782.91;;;-8.17;87.55
19114;BME280;9689;51.052;13.772;2024-01-11T05:36:49;101782.28;;;-7.92;86.25
19114;BME280;9689;51.052;13.772;2024-01-11T05:41:52;101772.28;;;-7.91;85.69
19114;BME280;9689;51.052;13.772;2024-01-11T05:46:52;101782.06;;;-7.95;84.76
19114;BME280;9689;51.052;13.772;2024-01-11T05:51:53;101788.50;;;-7.89;84.74
19114;BME280;9689;51.052;13.772;2024-01-11T05:56:55;101795.19;;;-7.89;84.77
19114;BME280;9689;51.052;13.772;2024-01-11T06:01:57;101804.72;;;-7.97;84.85
19114;BME280;9689;51.052;13.772;2024-01-11T06:07:00;101796.47;;;-7.94;84.62
19114;BME280;9689;51.052;13.772;2024-01-11T06:12:02;101800.44;;;-7.98;84.96
19114;BME280;9689;51.052;13.772;2024-01-11T06:17:03;101796.75;;;-8.02;85.15
19114;BME280;9689;51.052;13.772;2024-01-11T06:22:04;101818.13;;;-7.98;85.21
19114;BME280;9689;51.052;13.772;2024-01-11T06:27:06;101808.63;;;-8.01;85.11
19114;BME280;9689;51.052;13.772;2024-01-11T06:32:07;101823.03;;;-8.00;85.06
19114;BME280;9689;51.052;13.772;2024-01-11T06:37:09;101802.81;;;-8.00;85.19
19114;BME280;9689;51.052;13.772;2024-01-11T06:42:11;101794.72;;;-7.74;85.76
19114;BME280;9689;51.052;13.772;2024-01-11T06:47:12;101776.72;;;-7.88;84.78
19114;BME280;9689;51.052;13.772;2024-01-11T06:52:13;101788.22;;;-7.92;85.47
19114;BME280;9689;51.052;13.772;2024-01-11T06:57:15;101753.41;;;-7.84;85.48
19114;BME280;9689;51.052;13.772;2024-01-11T07:02:15;101746.59;;;-7.85;84.79
19114;BME280;9689;51.052;13.772;2024-01-11T07:07:16;101738.34;;;-7.83;84.71
19114;BME280;9689;51.052;13.772;2024-01-11T07:12:18;101735.59;;;-7.86;84.35
19114;BME280;9689;51.052;13.772;2024-01-11T07:17:19;101736.66;;;-7.72;84.15
19114;BME280;9689;51.052;13.772;2024-01-11T07:22:20;101742.56;;;-7.50;84.54
19114;BME280;9689;51.052;13.772;2024-01-11T07:27:22;101736.09;;;-7.46;84.08
19114;BME280;9689;51.052;13.772;2024-01-11T07:32:23;101719.34;;;-7.44;84.59
19114;BME280;9689;51.052;13.772;2024-01-11T07:37:24;101727.06;;;-7.31;83.76
19114;BME280;9689;51.052;13.772;2024-01-11T07:42:28;101738.22;;;-7.29;84.11
19114;BME280;9689;51.052;13.772;2024-01-11T07:47:29;101739.78;;;-7.19;84.20
19114;BME280;9689;51.052;13.772;2024-01-11T07:52:30;101730.63;;;-7.17;84.11
19114;BME280;9689;51.052;13.772;2024-01-11T07:57:32;101726.25;;;-7.20;83.75
19114;BME280;9689;51.052;13.772;2024-01-11T08:02:33;101740.47;;;-7.10;83.77
19114;BME280;9689;51.052;13.772;2024-01-11T08:07:35;101759.41;;;-7.05;83.46
19114;BME280;9689;51.052;13.772;2024-01-11T08:12:37;101765.59;;;-6.90;83.73
19114;BME280;9689;51.052;13.772;2024-01-11T08:17:38;101760.66;;;-6.76;82.78
19114;BME280;9689;51.052;13.772;2024-01-11T08:22:41;101730.03;;;-6.68;82.70
19114;BME280;9689;51.052;13.772;2024-01-11T08:27:44;101756.47;;;-6.76;83.33
19114;BME280;9689;51.052;13.772;2024-01-11T08:32:44;101757.03;;;-6.33;82.00
19114;BME280;9689;51.052;13.772;2024-01-11T08:37:46;101763.63;;;-6.47;81.77
19114;BME280;9689;51.052;13.772;2024-01-11T08:42:48;101747.63;;;-6.46;81.61
19114;BME280;9689;51.052;13.772;2024-01-11T08:47:48;101741.31;;;-6.16;81.12
19114;BME280;9689;51.052;13.772;2024-01-11T08:52:51;101740.75;;;-6.12;79.54
19114;BME280;9689;51.052;13.772;2024-01-11T08:57:56;101735.03;;;-5.59;78.30
19114;BME280;9689;51.052;13.772;2024-01-11T09:02:57;101728.03;;;-5.50;78.17
19114;BME280;9689;51.052;13.772;2024-01-11T09:07:59;101730.28;;;-5.42;77.83
19114;BME280;9689;51.052;13.772;2024-01-11T09:13:01;101749.84;;;-5.41;77.86
19114;BME280;9689;51.052;13.772;2024-01-11T09:18:02;101745.31;;;-5.20;77.97
19114;BME280;9689;51.052;13.772;2024-01-11T09:23:04;101737.25;;;-5.01;77.01
19114;BME280;9689;51.052;13.772;2024-01-11T09:28:06;101744.44;;;-4.69;75.69
19114;BME280;9689;51.052;13.772;2024-01-11T09:33:08;101742.47;;;-4.60;75.19
19114;BME280;9689;51.052;13.772;2024-01-11T09:38:09;101726.09;;;-4.37;73.81
19114;BME280;9689;51.052;13.772;2024-01-11T09:43:12;101743.28;;;-4.06;73.13
19114;BME280;9689;51.052;13.772;2024-01-11T09:48:13;101760.63;;;-3.73;71.07
19114;BME280;9689;51.052;13.772;2024-01-11T09:53:16;101752.44;;;-3.82;71.13
19114;BME280;9689;51.052;13.772;2024-01-11T09:58:20;101737.31;;;-3.51;70.95
19114;BME280;9689;51.052;13.772;2024-01-11T10:03:22;101725.19;;;-3.40;70.54
19114;BME280;9689;51.052;13.772;2024-01-11T10:08:24;101718.34;;;-3.41;70.58
19114;BME280;9689;51.052;13.772;2024-01-11T10:13:28;101709.91;;;-3.55;71.15
19114;BME280;9689;51.052;13.772;2024-01-11T10:18:29;101714.53;;;-3.62;72.13
19114;BME280;9689;51.052;13.772;2024-01-11T10:23:33;101707.16;;;-3.73;72.49
19114;BME280;9689;51.052;13.772;2024-01-11T10:28:35;101701.44;;;-3.68;73.00
19114;BME280;9689;51.052;13.772;2024-01-11T10:33:37;101676.94;;;-3.66;73.52
19114;BME280;9689;51.052;13.772;2024-01-11T10:38:39;101685.66;;;-3.63;73.34
19114;BME280;9689;51.052;13.772;2024-01-11T10:43:41;101680.88;;;-3.57;73.90
19114;BME280;9689;51.052;13.772;2024-01-11T10:48:44;101676.56;;;-3.30;73.53
19114;BME280;9689;51.052;13.772;2024-01-11T10:53:46;101668.44;;;-3.08;72.94
19114;BME280;9689;51.052;13.772;2024-01-11T10:58:50;101650.94;;;-3.02;72.56
19114;BME280;9689;51.052;13.772;2024-01-11T11:03:54;101655.25;;;-3.01;72.72
19114;BME280;9689;51.052;13.772;2024-01-11T11:08:57;101639.16;;;-3.00;72.80
19114;BME280;9689;51.052;13.772;2024-01-11T11:14:01;101624.38;;;-2.91;72.63
19114;BME280;9689;51.052;13.772;2024-01-11T11:19:02;101627.56;;;-2.78;71.69
19114;BME280;9689;51.052;13.772;2024-01-11T11:24:03;101621.72;;;-2.61;70.96
19114;BME280;9689;51.052;13.772;2024-01-11T11:29:05;101623.44;;;-2.29;70.12
19114;BME280;9689;51.052;13.772;2024-01-11T11:34:06;101607.19;;;-2.15;68.71
19114;BME280;9689;51.052;13.772;2024-01-11T11:39:09;101590.91;;;-1.66;67.32
19114;BME280;9689;51.052;13.772;2024-01-11T11:44:13;101580.22;;;-1.24;65.48
19114;BME280;9689;51.052;13.772;2024-01-11T11:49:14;101582.66;;;-1.27;63.98
19114;BME280;9689;51.052;13.772;2024-01-11T11:54:15;101578.41;;;-0.91;62.84
19114;BME280;9689;51.052;13.772;2024-01-11T11:59:18;101584.69;;;-0.84;61.95
19114;BME280;9689;51.052;13.772;2024-01-11T12:04:19;101586.22;;;-0.88;61.34
19114;BME280;9689;51.052;13.772;2024-01-11T12:09:21;101570.16;;;-1.03;61.63
19114;BME280;9689;51.052;13.772;2024-01-11T12:14:24;101576.97;;;-1.21;60.93
19114;BME280;9689;51.052;13.772;2024-01-11T12:19:27;101568.94;;;-1.11;60.03
19114;BME280;9689;51.052;13.772;2024-01-11T12:24:29;101567.22;;;-0.93;59.26
19114;BME280;9689;51.052;13.772;2024-01-11T12:29:31;101559.72;;;-0.70;57.42
19114;BME280;9689;51.052;13.772;2024-01-11T12:34:43;101555.75;;;-0.64;56.90
19114;BME280;9689;51.052;13.772;2024-01-11T12:39:45;101543.41;;;-0.72;55.90
19114;BME280;9689;51.052;13.772;2024-01-11T12:44:47;101546.06;;;-0.89;56.15
19114;BME280;9689;51.052;13.772;2024-01-11T12:49:53;101535.16;;;-1.04;56.59
19114;BME280;9689;51.052;13.772;2024-01-11T12:54:55;101536.53;;;-0.93;57.17
19114;BME280;9689;51.052;13.772;2024-01-11T13:00:11;101534.31;;;-0.85;56.91
19114;BME280;9689;51.052;13.772;2024-01-11T13:05:13;101537.69;;;-0.86;56.37
19114;BME280;9689;51.052;13.772;2024-01-11T13:10:15;101546.34;;;-1.02;56.43
19114;BME280;9689;51.052;13.772;2024-01-11T13:15:17;101552.41;;;-1.18;55.63
19114;BME280;9689;51.052;13.772;2024-01-11T13:20:18;101545.84;;;-1.12;55.65
19114;BME280;9689;51.052;13.772;2024-01-11T13:25:23;101551.72;;;-0.96;54.94
19114;BME280;9689;51.052;13.772;2024-01-11T13:30:25;101535.31;;;-0.81;54.38
19114;BME280;9689;51.052;13.772;2024-01-11T13:35:26;101521.13;;;-0.94;54.83
19114;BME280;9689;51.052;13.772;2024-01-11T13:40:28;101513.88;;;-1.03;55.17
19114;BME280;9689;51.052;13.772;2024-01-11T13:45:30;101522.94;;;-1.09;55.36
19114;BME280;9689;51.052;13.772;2024-01-11T13:50:31;101543.19;;;-1.14;55.65
19114;BME280;9689;51.052;13.772;2024-01-11T13:55:33;101547.50;;;-1.13;55.97
19114;BME280;9689;51.052;13.772;2024-01-11T14:00:40;101534.94;;;-1.26;56.09
19114;BME280;9689;51.052;13.772;2024-01-11T14:05:41;101534.44;;;-1.37;56.45
19114;BME280;9689;51.052;13.772;2024-01-11T14:10:42;101528.53;;;-1.36;55.88
19114;BME280;9689;51.052;13.772;2024-01-11T14:15:44;101530.41;;;-1.32;55.25
19114;BME280;9689;51.052;13.772;2024-01-11T14:20:47;101532.09;;;-1.32;55.18
19114;BME280;9689;51.052;13.772;2024-01-11T14:25:48;101527.84;;;-1.32;54.63
19114;BME280;9689;51.052;13.772;2024-01-11T14:30:50;101538.25;;;-1.47;54.10
19114;BME280;9689;51.052;13.772;2024-01-11T14:35:51;101524.47;;;-1.49;54.38
19114;BME280;9689;51.052;13.772;2024-01-11T14:40:52;101531.81;;;-1.56;54.29
19114;BME280;9689;51.052;13.772;2024-01-11T14:45:54;101543.53;;;-1.60;55.28
19114;BME280;9689;51.052;13.772;2024-01-11T14:50:55;101558.66;;;-1.64;55.66
19114;BME280;9689;51.052;13.772;2024-01-11T14:55:56;101561.78;;;-1.70;55.76
19114;BME280;9689;51.052;13.772;2024-01-11T15:00:58;101535.34;;;-1.71;56.25
19114;BME280;9689;51.052;13.772;2024-01-11T15:05:59;101545.88;;;-1.82;56.40
19114;BME280;9689;51.052;13.772;2024-01-11T15:11:00;101557.19;;;-1.93;57.21
19114;BME280;9689;51.052;13.772;2024-01-11T15:16:02;101555.06;;;-2.02;57.87
19114;BME280;9689;51.052;13.772;2024-01-11T15:21:03;101545.31;;;-2.09;58.57
19114;BME280;9689;51.052;13.772;2024-01-11T15:26:04;101542.09;;;-2.23;58.95
19114;BME280;9689;51.052;13.772;2024-01-11T15:31:07;101553.19;;;-2.22;59.38
19114;BME280;9689;51.052;13.772;2024-01-11T15:36:08;101549.66;;;-2.41;59.16
19114;BME280;9689;51.052;13.772;2024-01-11T15:41:09;101564.25;;;-2.38;59.73
19114;BME280;9689;51.052;13.772;2024-01-11T15:46:11;101561.31;;;-2.46;59.69
19114;BME280;9689;51.052;13.772;2024-01-11T15:51:12;101575.41;;;-2.52;60.15
19114;BME280;9689;51.052;13.772;2024-01-11T15:56:13;101572.63;;;-2.57;60.56
19114;BME280;9689;51.052;13.772;2024-01-11T16:01:15;101565.84;;;-2.57;60.94
19114;BME280;9689;51.052;13.772;2024-01-11T16:06:16;101571.59;;;-2.61;61.84
19114;BME280;9689;51.052;13.772;2024-01-11T16:11:18;101564.41;;;-2.68;61.64
19114;BME280;9689;51.052;13.772;2024-01-11T16:16:20;101552.19;;;-2.73;61.71
19114;BME280;9689;51.052;13.772;2024-01-11T16:21:21;101562.94;;;-2.79;62.15
19114;BME280;9689;51.052;13.772;2024-01-11T16:26:22;101577.47;;;-2.78;62.37
19114;BME280;9689;51.052;13.772;2024-01-11T16:31:24;101616.19;;;-2.85;62.93
19114;BME280;9689;51.052;13.772;2024-01-11T16:36:25;101625.16;;;-2.92;63.93
19114;BME280;9689;51.052;13.772;2024-01-11T16:41:26;101629.75;;;-3.01;64.91
19114;BME280;9689;51.052;13.772;2024-01-11T16:46:28;101652.88;;;-2.98;64.99
19114;BME280;9689;51.052;13.772;2024-01-11T16:51:29;101645.84;;;-3.02;64.60
19114;BME280;9689;51.052;13.772;2024-01-11T16:56:30;101644.91;;;-3.04;64.60
19114;BME280;9689;51.052;13.772;2024-01-11T17:01:32;101644.09;;;-3.03;64.47
19114;BME280;9689;51.052;13.772;2024-01-11T17:06:33;101646.38;;;-3.07;65.40
19114;BME280;9689;51.052;13.772;2024-01-11T17:11:38;101655.34;;;-2.99;64.92
19114;BME280;9689;51.052;13.772;2024-01-11T17:16:42;101664.66;;;-3.00;65.22
19114;BME280;9689;51.052;13.772;2024-01-11T17:21:42;101666.41;;;-2.99;65.52
19114;BME280;9689;51.052;13.772;2024-01-11T17:26:44;101670.56;;;-3.01;65.62
19114;BME280;9689;51.052;13.772;2024-01-11T17:31:46;101669.41;;;-3.06;65.96
19114;BME280;9689;51.052;13.772;2024-01-11T17:36:47;101678.47;;;-3.11;66.79
19114;BME280;9689;51.052;13.772;2024-01-11T17:41:48;101681.97;;;-3.24;67.52
19114;BME280;9689;51.052;13.772;2024-01-11T17:46:50;101705.63;;;-3.26;68.16
19114;BME280;9689;51.052;13.772;2024-01-11T17:51:51;101704.91;;;-3.24;68.33
19114;BME280;9689;51.052;13.772;2024-01-11T17:56:55;101707.22;;;-3.28;68.93
19114;BME280;9689;51.052;13.772;2024-01-11T18:01:58;101719.41;;;-3.23;69.55
19114;BME280;9689;51.052;13.772;2024-01-11T18:06:58;101737.25;;;-3.23;70.00
19114;BME280;9689;51.052;13.772;2024-01-11T18:11:59;101735.44;;;-3.25;69.99
19114;BME280;9689;51.052;13.772;2024-01-11T18:17:01;101734.47;;;-3.27;70.45
19114;BME280;9689;51.052;13.772;2024-01-11T18:22:03;101735.16;;;-3.15;70.18
19114;BME280;9689;51.052;13.772;2024-01-11T18:27:04;101728.75;;;-3.08;69.98
19114;BME280;9689;51.052;13.772;2024-01-11T18:32:09;101720.06;;;-3.12;70.03
19114;BME280;9689;51.052;13.772;2024-01-11T18:37:10;101726.84;;;-3.13;70.55
19114;BME280;9689;51.052;13.772;2024-01-11T18:42:10;101723.66;;;-3.08;70.81
19114;BME280;9689;51.052;13.772;2024-01-11T18:47:14;101734.31;;;-3.01;70.70
19114;BME280;9689;51.052;13.772;2024-01-11T18:52:15;101740.13;;;-3.03;70.83
19114;BME280;9689;51.052;13.772;2024-01-11T18:57:16;101738.34;;;-2.90;71.09
19114;BME280;9689;51.052;13.772;2024-01-11T19:02:18;101741.16;;;-2.85;71.28
19114;BME280;9689;51.052;13.772;2024-01-11T19:07:18;101734.56;;;-2.81;71.33
19114;BME280;9689;51.052;13.772;2024-01-11T19:12:19;101740.09;;;-2.74;71.83
19114;BME280;9689;51.052;13.772;2024-01-11T19:17:21;101736.16;;;-2.83;72.54
19114;BME280;9689;51.052;13.772;2024-01-11T19:22:22;101739.22;;;-2.74;73.08
19114;BME280;9689;51.052;13.772;2024-01-11T19:27:23;101749.25;;;-2.77;74.03
19114;BME280;9689;51.052;13.772;2024-01-11T19:32:26;101744.25;;;-2.76;74.64
19114;BME280;9689;51.052;13.772;2024-01-11T19:37:27;101746.50;;;-2.66;74.63
19114;BME280;9689;51.052;13.772;2024-01-11T19:42:27;101740.44;;;-2.68;76.23
19114;BME280;9689;51.052;13.772;2024-01-11T19:47:29;101732.16;;;-2.64;76.43
19114;BME280;9689;51.052;13.772;2024-01-11T19:52:31;101731.03;;;-2.69;76.57
19114;BME280;9689;51.052;13.772;2024-01-11T19:57:31;101733.31;;;-2.73;76.73
19114;BME280;9689;51.052;13.772;2024-01-11T20:02:33;101731.03;;;-2.69;77.71
19114;BME280;9689;51.052;13.772;2024-01-11T20:07:36;101728.81;;;-2.63;77.27
19114;BME280;9689;51.052;13.772;2024-01-11T20:12:37;101725.56;;;-2.60;77.34
19114;BME280;9689;51.052;13.772;2024-01-11T20:17:39;101722.50;;;-2.69;77.81
19114;BME280;9689;51.052;13.772;2024-01-11T20:22:40;101716.69;;;-2.67;78.20
19114;BME280;9689;51.052;13.772;2024-01-11T20:27:41;101722.47;;;-2.54;78.38
19114;BME280;9689;51.052;13.772;2024-01-11T20:32:43;101707.59;;;-2.62;78.64
19114;BME280;9689;51.052;13.772;2024-01-11T20:37:44;101713.06;;;-2.56;79.08
19114;BME280;9689;51.052;13.772;2024-01-11T20:42:45;101711.53;;;-2.52;79.69
19114;BME280;9689;51.052;13.772;2024-01-11T20:47:47;101715.44;;;-2.59;80.05
19114;BME280;9689;51.052;13.772;2024-01-11T20:52:48;101709.38;;;-2.61;80.78
19114;BME280;9689;51.052;13.772;2024-01-11T20:57:49;101701.50;;;-2.49;82.05
19114;BME280;9689;51.052;13.772;2024-01-11T21:02:51;101701.69;;;-2.46;81.05
19114;BME280;9689;51.052;13.772;2024-01-11T21:07:52;101705.03;;;-2.47;81.61
19114;BME280;9689;51.052;13.772;2024-01-11T21:12:54;101716.19;;;-2.45;82.14
19114;BME280;9689;51.052;13.772;2024-01-11T21:17:56;101727.78;;;-2.35;81.44
19114;BME280;9689;51.052;13.772;2024-01-11T21:22:57;101725.50;;;-2.31;81.54
19114;BME280;9689;51.052;13.772;2024-01-11T21:27:58;101729.66;;;-2.33;81.71
19114;BME280;9689;51.052;13.772;2024-01-11T21:33:01;101740.50;;;-2.20;81.73
19114;BME280;9689;51.052;13.772;2024-01-11T21:38:02;101751.53;;;-2.21;81.03
19114;BME280;9689;51.052;13.772;2024-01-11T21:43:03;101760.13;;;-2.19;81.10
19114;BME280;9689;51.052;13.772;2024-01-11T21:48:08;101756.72;;;-2.20;81.45
19114;BME280;9689;51.052;13.772;2024-01-11T21:53:09;101757.44;;;-2.22;81.89
19114;BME280;9689;51.052;13.772;2024-01-11T21:58:10;101758.22;;;-2.23;81.56
19114;BME280;9689;51.052;13.772;2024-01-11T22:03:12;101756.63;;;-2.21;81.48
19114;BME280;9689;51.052;13.772;2024-01-11T22:08:13;101754.59;;;-2.27;82.48
19114;BME280;9689;51.052;13.772;2024-01-11T22:13:15;101757.50;;;-2.21;82.10
19114;BME280;9689;51.052;13.772;2024-01-11T22:18:18;101759.19;;;-2.21;82.14
19114;BME280;9689;51.052;13.772;2024-01-11T22:23:19;101771.94;;;-2.21;82.02
19114;BME280;9689;51.052;13.772;2024-01-11T22:28:20;101768.16;;;-2.13;82.16
19114;BME280;9689;51.052;13.772;2024-01-11T22:33:22;101777.56;;;-2.12;82.05
19114;BME280;9689;51.052;13.772;2024-01-11T22:38:23;101763.84;;;-2.14;81.83
19114;BME280;9689;51.052;13.772;2024-01-11T22:43:24;101765.13;;;-2.06;82.27
19114;BME280;9689;51.052;13.772;2024-01-11T22:48:26;101764.19;;;-2.08;82.06
19114;BME280;9689;51.052;13.772;2024-01-11T22:53:28;101768.50;;;-2.07;82.44
19114;BME280;9689;51.052;13.772;2024-01-11T22:58:29;101765.94;;;-2.07;82.61
19114;BME280;9689;51.052;13.772;2024-01-11T23:03:31;101766.34;;;-2.00;82.30
19114;BME280;9689;51.052;13.772;2024-01-11T23:08:31;101757.88;;;-1.98;82.76
19114;BME280;9689;51.052;13.772;2024-01-11T23:13:32;101757.31;;;-1.93;83.00
19114;BME280;9689;51.052;13.772;2024-01-11T23:18:34;101761.88;;;-1.87;82.81
19114;BME280;9689;51.052;13.772;2024-01-11T23:23:37;101755.03;;;-1.88;83.14
19114;BME280;9689;51.052;13.772;2024-01-11T23:28:41;101760.94;;;-1.89;83.64
19114;BME280;9689;51.052;13.772;2024-01-11T23:33:43;101759.06;;;-1.92;83.28
19114;BME280;9689;51.052;13.772;2024-01-11T23:38:44;101750.53;;;-1.92;84.30
19114;BME280;9689;51.052;13.772;2024-01-11T23:43:45;101744.81;;;-1.88;83.58
19114;BME280;9689;51.052;13.772;2024-01-11T23:48:47;101745.38;;;-1.78;83.46
19114;BME280;9689;51.052;13.772;2024-01-11T23:53:48;101753.84;;;-1.79;83.91
19114;BME280;9689;51.052;13.772;2024-01-11T23:58:49;101745.44;;;-1.76;84.18
